createdAt,value
2022-10-22T00:00:11.680Z,63.40
2022-10-22T00:01:14.594Z,63.40
2022-10-22T00:02:19.946Z,63.40
2022-10-22T00:03:23.384Z,63.40
2022-10-22T00:04:26.480Z,63.40
2022-10-22T00:05:29.493Z,63.40
2022-10-22T00:06:32.615Z,63.40
2022-10-22T00:07:35.215Z,63.30
2022-10-22T00:08:38.029Z,63.40
2022-10-22T00:09:40.963Z,63.40
2022-10-22T00:10:43.566Z,63.40
2022-10-22T00:11:46.011Z,63.40
2022-10-22T00:12:48.537Z,63.40
2022-10-22T00:13:51.238Z,63.40
2022-10-22T00:14:53.841Z,63.40
2022-10-22T00:15:56.275Z,63.40
2022-10-22T00:17:01.900Z,63.40
2022-10-22T00:18:04.526Z,63.40
2022-10-22T00:19:09.097Z,63.30
2022-10-22T00:20:11.865Z,63.40
2022-10-22T00:21:14.323Z,63.40
2022-10-22T00:22:16.801Z,63.40
2022-10-22T00:23:19.200Z,63.40
2022-10-22T00:24:21.641Z,63.30
2022-10-22T00:25:24.140Z,63.30
2022-10-22T00:26:26.582Z,63.30
2022-10-22T00:27:30.085Z,63.30
2022-10-22T00:28:33.181Z,63.40
2022-10-22T00:29:35.793Z,63.30
2022-10-22T00:30:41.454Z,63.30
2022-10-22T00:31:49.579Z,63.30
2022-10-22T00:32:52.124Z,63.30
2022-10-22T00:33:54.561Z,63.30
2022-10-22T00:34:57.207Z,63.30
2022-10-22T00:35:59.691Z,63.30
2022-10-22T00:37:02.130Z,63.30
2022-10-22T00:38:04.626Z,63.30
2022-10-22T00:39:07.038Z,63.30
2022-10-22T00:40:10.344Z,63.30
2022-10-22T00:41:13.084Z,63.30
2022-10-22T00:42:19.866Z,63.30
2022-10-22T00:43:22.575Z,63.30
2022-10-22T00:45:02.285Z,63.30
2022-10-22T00:46:05.587Z,63.30
2022-10-22T00:47:08.062Z,63.20
2022-10-22T00:48:14.658Z,63.30
2022-10-22T00:49:17.086Z,63.20
2022-10-22T00:50:28.431Z,63.20
2022-10-22T00:51:34.451Z,63.30
2022-10-22T00:52:37.020Z,63.20
2022-10-22T00:53:53.462Z,63.80
2022-10-22T00:54:57.262Z,63.20
2022-10-22T00:56:00.258Z,63.20
2022-10-22T00:57:05.163Z,63.20
2022-10-22T00:58:08.280Z,63.20
2022-10-22T00:59:13.491Z,63.20
2022-10-22T01:00:16.785Z,63.20
2022-10-22T01:01:23.874Z,63.20
2022-10-22T01:02:26.407Z,63.20
2022-10-22T01:03:29.362Z,63.20
2022-10-22T01:04:31.756Z,63.20
2022-10-22T01:05:52.789Z,63.20
2022-10-22T01:06:55.910Z,63.20
2022-10-22T01:07:58.639Z,63.10
2022-10-22T01:09:26.568Z,63.10
2022-10-22T01:10:55.821Z,63.20
2022-10-22T01:12:27.958Z,63.10
2022-10-22T01:13:48.635Z,63.10
2022-10-22T01:15:19.124Z,63.10
2022-10-22T01:16:44.953Z,63.10
2022-10-22T01:17:54.645Z,63.10
2022-10-22T01:19:25.031Z,63.10
2022-10-22T01:20:55.456Z,63.10
2022-10-22T01:22:19.080Z,63.10
2022-10-22T01:23:45.832Z,63.10
2022-10-22T01:24:58.575Z,63.10
2022-10-22T01:26:06.128Z,63.10
2022-10-22T01:27:26.577Z,63.10
2022-10-22T01:28:53.129Z,63.10
2022-10-22T01:30:03.125Z,63.20
2022-10-22T01:31:07.824Z,63.10
2022-10-22T01:32:15.704Z,63.10
2022-10-22T01:33:21.129Z,63.00
2022-10-22T01:34:25.825Z,63.00
2022-10-22T01:36:38.827Z,63.00
2022-10-22T01:37:48.643Z,63.00
2022-10-22T01:38:52.342Z,63.00
2022-10-22T01:39:57.792Z,63.00
2022-10-22T01:41:01.077Z,63.50
2022-10-22T01:42:03.678Z,63.00
2022-10-22T01:43:08.888Z,63.10
2022-10-22T01:44:31.127Z,63.00
2022-10-22T01:45:40.153Z,63.00
2022-10-22T01:46:42.668Z,63.00
2022-10-22T01:47:57.356Z,63.00
2022-10-22T01:49:02.791Z,63.00
2022-10-22T01:50:40.556Z,63.00
2022-10-22T01:51:51.152Z,63.00
2022-10-22T01:53:04.667Z,63.00
2022-10-22T01:54:39.698Z,63.00
2022-10-22T01:55:53.563Z,63.00
2022-10-22T01:57:23.286Z,63.00
2022-10-22T01:58:41.873Z,63.00
2022-10-22T01:59:53.138Z,63.00
2022-10-22T02:01:15.777Z,63.00
2022-10-22T02:02:38.434Z,63.00
2022-10-22T02:04:04.512Z,63.00
2022-10-22T02:05:22.888Z,63.00
2022-10-22T02:06:27.267Z,63.00
2022-10-22T02:08:13.826Z,63.00
2022-10-22T02:09:19.477Z,63.00
2022-10-22T02:10:22.736Z,62.90
2022-10-22T02:11:25.124Z,62.90
2022-10-22T02:12:29.351Z,62.90
2022-10-22T02:13:37.616Z,63.00
2022-10-22T02:14:43.146Z,63.00
2022-10-22T02:15:49.102Z,63.00
2022-10-22T02:16:51.782Z,62.90
2022-10-22T02:17:57.407Z,62.90
2022-10-22T02:19:03.209Z,62.90
2022-10-22T02:20:14.389Z,63.00
2022-10-22T02:21:17.019Z,62.90
2022-10-22T02:22:20.417Z,62.90
2022-10-22T02:23:23.466Z,62.90
2022-10-22T02:24:25.987Z,62.90
2022-10-22T02:25:32.465Z,62.90
2022-10-22T02:26:48.289Z,62.90
2022-10-22T02:28:19.506Z,62.90
2022-10-22T02:29:35.408Z,62.90
2022-10-22T02:30:39.938Z,62.90
2022-10-22T02:31:46.092Z,62.90
2022-10-22T02:33:02.570Z,62.90
2022-10-22T02:34:11.075Z,62.90
2022-10-22T02:35:17.230Z,62.90
2022-10-22T02:36:20.967Z,62.90
2022-10-22T02:37:25.914Z,62.90
2022-10-22T02:38:29.196Z,62.90
2022-10-22T02:39:33.239Z,62.90
2022-10-22T02:40:36.316Z,62.90
2022-10-22T02:41:38.884Z,62.80
2022-10-22T02:42:43.225Z,62.80
2022-10-22T02:43:51.569Z,62.80
2022-10-22T02:44:55.072Z,62.90
2022-10-22T02:45:57.875Z,62.90
2022-10-22T02:47:00.738Z,62.80
2022-10-22T02:48:04.071Z,62.90
2022-10-22T02:49:07.061Z,62.90
2022-10-22T02:50:10.500Z,62.90
2022-10-22T02:51:13.497Z,62.90
2022-10-22T02:52:15.877Z,62.90
2022-10-22T02:53:18.322Z,62.90
2022-10-22T02:54:20.801Z,62.80
2022-10-22T02:55:23.226Z,62.90
2022-10-22T02:56:26.257Z,62.90
2022-10-22T02:57:28.661Z,62.90
2022-10-22T02:58:31.258Z,62.90
2022-10-22T02:59:34.187Z,62.80
2022-10-22T03:00:36.646Z,62.80
2022-10-22T03:01:39.145Z,62.90
2022-10-22T03:02:41.634Z,62.90
2022-10-22T03:03:44.002Z,62.80
2022-10-22T03:04:46.457Z,62.80
2022-10-22T03:05:51.026Z,62.80
2022-10-22T03:06:53.582Z,62.80
2022-10-22T03:07:56.159Z,62.80
2022-10-22T03:08:58.737Z,62.80
2022-10-22T03:10:01.280Z,62.80
2022-10-22T03:11:03.800Z,62.80
2022-10-22T03:12:06.457Z,62.80
2022-10-22T03:13:09.532Z,62.80
2022-10-22T03:14:11.988Z,62.80
2022-10-22T03:15:14.548Z,62.80
2022-10-22T03:16:16.973Z,62.80
2022-10-22T03:17:19.445Z,62.80
2022-10-22T03:18:21.885Z,62.80
2022-10-22T03:19:24.334Z,62.80
2022-10-22T03:20:27.038Z,62.80
2022-10-22T03:21:32.501Z,62.80
2022-10-22T03:22:36.615Z,62.80
2022-10-22T03:23:42.455Z,62.80
2022-10-22T03:24:47.408Z,62.80
2022-10-22T03:25:50.888Z,62.80
2022-10-22T03:26:53.465Z,62.80
2022-10-22T03:28:01.180Z,62.80
2022-10-22T03:29:04.044Z,62.80
2022-10-22T03:30:08.684Z,62.80
2022-10-22T03:31:11.113Z,62.80
2022-10-22T03:32:14.029Z,62.80
2022-10-22T03:33:16.466Z,62.80
2022-10-22T03:34:18.989Z,62.80
2022-10-22T03:35:21.747Z,62.70
2022-10-22T03:36:24.473Z,62.70
2022-10-22T03:37:27.845Z,62.80
2022-10-22T03:38:35.142Z,62.70
2022-10-22T03:39:38.030Z,62.70
2022-10-22T03:40:43.384Z,62.80
2022-10-22T03:41:47.412Z,62.80
2022-10-22T03:42:50.042Z,62.70
2022-10-22T03:43:53.840Z,62.70
2022-10-22T03:44:56.396Z,62.70
2022-10-22T03:45:58.827Z,62.70
2022-10-22T03:47:02.685Z,62.80
2022-10-22T03:48:05.842Z,62.70
2022-10-22T03:49:08.295Z,62.70
2022-10-22T03:50:11.186Z,62.70
2022-10-22T03:51:13.676Z,62.70
2022-10-22T03:52:16.287Z,62.70
2022-10-22T03:53:18.776Z,62.70
2022-10-22T03:54:21.193Z,62.70
2022-10-22T03:55:24.230Z,62.70
2022-10-22T03:56:26.880Z,62.70
2022-10-22T03:57:29.362Z,62.80
2022-10-22T03:58:31.789Z,62.70
2022-10-22T03:59:43.359Z,62.70
2022-10-22T04:00:45.890Z,62.70
2022-10-22T04:01:48.332Z,62.70
2022-10-22T04:02:50.814Z,62.70
2022-10-22T04:03:53.740Z,62.70
2022-10-22T04:04:56.143Z,62.70
2022-10-22T04:06:03.556Z,62.70
2022-10-22T04:07:06.973Z,62.70
2022-10-22T04:08:09.938Z,62.70
2022-10-22T04:09:12.394Z,62.70
2022-10-22T04:10:18.267Z,62.70
2022-10-22T04:11:20.786Z,62.70
2022-10-22T04:12:23.185Z,62.70
2022-10-22T04:13:25.649Z,62.70
2022-10-22T04:14:28.214Z,62.70
2022-10-22T04:15:30.707Z,62.70
2022-10-22T04:16:33.532Z,62.70
2022-10-22T04:17:37.280Z,62.70
2022-10-22T04:18:40.971Z,62.70
2022-10-22T04:19:43.475Z,62.70
2022-10-22T04:20:46.464Z,62.70
2022-10-22T04:21:49.155Z,62.70
2022-10-22T04:22:51.741Z,62.70
2022-10-22T04:23:54.289Z,62.70
2022-10-22T04:24:56.725Z,62.60
2022-10-22T04:26:00.191Z,62.60
2022-10-22T04:27:02.692Z,62.60
2022-10-22T04:28:09.435Z,62.70
2022-10-22T04:29:15.969Z,62.60
2022-10-22T04:30:18.961Z,62.60
2022-10-22T04:31:24.038Z,62.60
2022-10-22T04:32:27.788Z,62.70
2022-10-22T04:33:30.302Z,62.60
2022-10-22T04:34:32.695Z,62.60
2022-10-22T04:35:39.857Z,62.60
2022-10-22T04:36:42.325Z,62.60
2022-10-22T04:37:44.762Z,62.60
2022-10-22T04:38:52.568Z,62.60
2022-10-22T04:39:57.955Z,62.60
2022-10-22T04:41:15.961Z,62.60
2022-10-22T04:42:18.805Z,62.60
2022-10-22T04:43:21.266Z,62.60
2022-10-22T04:44:23.638Z,62.60
2022-10-22T04:45:26.514Z,62.60
2022-10-22T04:46:31.584Z,62.60
2022-10-22T04:47:33.990Z,62.60
2022-10-22T04:48:37.888Z,62.70
2022-10-22T04:49:40.713Z,62.60
2022-10-22T04:50:43.113Z,62.60
2022-10-22T04:51:45.632Z,62.60
2022-10-22T04:52:48.020Z,62.60
2022-10-22T04:53:50.803Z,62.60
2022-10-22T04:54:53.164Z,62.60
2022-10-22T04:55:55.702Z,62.60
2022-10-22T04:56:58.179Z,62.60
2022-10-22T04:58:01.368Z,62.60
2022-10-22T04:59:06.774Z,62.60
2022-10-22T05:00:10.949Z,62.60
2022-10-22T05:01:24.669Z,62.60
2022-10-22T05:02:27.164Z,62.60
2022-10-22T05:03:29.626Z,62.60
2022-10-22T05:04:32.315Z,62.60
2022-10-22T05:05:34.879Z,63.10
2022-10-22T05:06:37.672Z,62.50
2022-10-22T05:07:40.438Z,62.60
2022-10-22T05:08:43.761Z,62.60
2022-10-22T05:09:46.153Z,62.50
2022-10-22T05:10:48.621Z,62.50
2022-10-22T05:11:52.385Z,62.50
2022-10-22T05:12:54.824Z,62.50
2022-10-22T05:13:58.954Z,62.50
2022-10-22T05:15:01.492Z,62.50
2022-10-22T05:16:04.644Z,62.50
2022-10-22T05:17:07.352Z,62.50
2022-10-22T05:18:09.825Z,62.50
2022-10-22T05:19:24.096Z,62.50
2022-10-22T05:20:26.657Z,62.50
2022-10-22T05:21:29.177Z,62.50
2022-10-22T05:22:31.711Z,62.50
2022-10-22T05:23:34.146Z,62.60
2022-10-22T05:24:37.158Z,62.50
2022-10-22T05:25:39.580Z,62.50
2022-10-22T05:26:42.513Z,62.50
2022-10-22T05:27:49.615Z,62.50
2022-10-22T05:28:52.759Z,62.50
2022-10-22T05:29:57.571Z,62.50
2022-10-22T05:31:00.868Z,62.50
2022-10-22T05:32:03.376Z,62.50
2022-10-22T05:33:05.711Z,62.50
2022-10-22T05:34:08.306Z,62.50
2022-10-22T05:35:10.701Z,62.50
2022-10-22T05:36:18.897Z,62.50
2022-10-22T05:37:21.747Z,62.50
2022-10-22T05:38:24.772Z,62.50
2022-10-22T05:39:27.289Z,62.50
2022-10-22T05:40:31.112Z,62.50
2022-10-22T05:41:35.669Z,62.50
2022-10-22T05:42:38.283Z,62.50
2022-10-22T05:43:42.026Z,62.50
2022-10-22T05:44:48.313Z,62.40
2022-10-22T05:45:50.745Z,62.40
2022-10-22T05:46:53.157Z,62.40
2022-10-22T05:47:55.641Z,62.50
2022-10-22T05:49:03.966Z,62.40
2022-10-22T05:50:06.998Z,62.40
2022-10-22T05:51:11.978Z,62.40
2022-10-22T05:52:14.412Z,62.40
2022-10-22T05:53:18.437Z,62.40
2022-10-22T05:54:22.344Z,62.50
2022-10-22T05:55:24.799Z,62.40
2022-10-22T05:56:29.471Z,62.40
2022-10-22T05:57:31.928Z,62.40
2022-10-22T05:58:34.923Z,62.40
2022-10-22T05:59:37.412Z,62.40
2022-10-22T06:00:40.091Z,62.40
2022-10-22T06:01:42.614Z,62.40
2022-10-22T06:02:49.090Z,62.40
2022-10-22T06:04:04.343Z,62.40
2022-10-22T06:05:07.132Z,62.40
2022-10-22T06:06:22.489Z,62.40
2022-10-22T06:07:24.934Z,62.40
2022-10-22T06:08:28.916Z,62.40
2022-10-22T06:10:42.713Z,62.40
2022-10-22T06:11:45.713Z,62.40
2022-10-22T06:12:48.767Z,62.40
2022-10-22T06:13:51.970Z,62.40
2022-10-22T06:14:54.488Z,62.40
2022-10-22T06:15:56.895Z,62.40
2022-10-22T06:17:00.512Z,62.40
2022-10-22T06:18:03.093Z,62.40
2022-10-22T06:19:05.571Z,62.40
2022-10-22T06:20:08.869Z,62.40
2022-10-22T06:21:14.014Z,62.40
2022-10-22T06:22:16.618Z,62.30
2022-10-22T06:23:19.070Z,62.40
2022-10-22T06:24:21.421Z,62.30
2022-10-22T06:25:23.861Z,62.40
2022-10-22T06:26:26.572Z,62.30
2022-10-22T06:27:28.978Z,62.30
2022-10-22T06:28:32.138Z,62.40
2022-10-22T06:29:34.549Z,62.30
2022-10-22T06:30:41.835Z,62.40
2022-10-22T06:31:47.829Z,62.30
2022-10-22T06:32:53.049Z,62.30
2022-10-22T06:33:56.840Z,62.30
2022-10-22T06:34:59.229Z,62.30
2022-10-22T06:36:11.398Z,62.30
2022-10-22T06:37:15.326Z,62.30
2022-10-22T06:38:17.758Z,62.30
2022-10-22T06:39:20.128Z,62.30
2022-10-22T06:40:23.248Z,62.30
2022-10-22T06:41:29.513Z,62.30
2022-10-22T06:42:32.183Z,62.30
2022-10-22T06:43:34.652Z,62.30
2022-10-22T06:44:37.126Z,62.30
2022-10-22T06:45:40.311Z,62.30
2022-10-22T06:46:43.642Z,62.30
2022-10-22T06:47:47.311Z,62.30
2022-10-22T06:48:58.150Z,62.30
2022-10-22T06:50:00.623Z,62.30
2022-10-22T06:51:06.149Z,62.30
2022-10-22T06:52:08.540Z,62.30
2022-10-22T06:53:11.419Z,62.30
2022-10-22T06:54:13.873Z,62.30
2022-10-22T06:55:16.367Z,62.30
2022-10-22T06:56:21.632Z,62.30
2022-10-22T06:57:24.113Z,62.20
2022-10-22T06:58:26.520Z,62.30
2022-10-22T06:59:29.278Z,62.20
2022-10-22T07:01:39.934Z,62.30
2022-10-22T07:02:42.878Z,62.20
2022-10-22T07:03:45.674Z,62.30
2022-10-22T07:04:48.001Z,62.20
2022-10-22T07:05:50.459Z,62.30
2022-10-22T07:06:55.502Z,62.20
2022-10-22T07:07:57.986Z,62.20
2022-10-22T07:09:00.820Z,62.20
2022-10-22T07:10:04.133Z,62.20
2022-10-22T07:11:24.387Z,62.20
2022-10-22T07:12:26.951Z,62.20
2022-10-22T07:13:29.398Z,62.20
2022-10-22T07:14:32.869Z,62.20
2022-10-22T07:15:35.279Z,62.20
2022-10-22T07:16:38.032Z,62.20
2022-10-22T07:18:48.283Z,62.20
2022-10-22T07:19:51.355Z,62.20
2022-10-22T07:20:54.449Z,62.20
2022-10-22T07:21:56.964Z,62.20
2022-10-22T07:22:59.421Z,62.20
2022-10-22T07:24:02.083Z,62.20
2022-10-22T07:25:07.421Z,62.20
2022-10-22T07:26:12.773Z,62.20
2022-10-22T07:27:15.182Z,62.20
2022-10-22T07:28:17.715Z,62.20
2022-10-22T07:29:20.237Z,62.20
2022-10-22T07:30:22.758Z,62.20
2022-10-22T07:31:25.406Z,62.20
2022-10-22T07:32:28.142Z,62.20
2022-10-22T07:33:30.660Z,62.20
2022-10-22T07:34:33.100Z,62.20
2022-10-22T07:35:37.535Z,62.20
2022-10-22T07:36:39.960Z,62.20
2022-10-22T07:37:42.787Z,62.20
2022-10-22T07:38:49.569Z,62.20
2022-10-22T07:39:52.057Z,62.20
2022-10-22T07:40:55.034Z,62.20
2022-10-22T07:41:58.652Z,62.20
2022-10-22T07:43:01.791Z,62.20
2022-10-22T07:44:04.569Z,62.10
2022-10-22T07:45:07.840Z,62.10
2022-10-22T07:46:10.617Z,62.10
2022-10-22T07:47:12.992Z,62.20
2022-10-22T07:48:15.700Z,62.10
2022-10-22T07:49:18.142Z,62.10
2022-10-22T07:50:21.407Z,62.10
2022-10-22T07:51:23.946Z,62.10
2022-10-22T07:52:26.543Z,62.10
2022-10-22T07:53:28.948Z,62.10
2022-10-22T07:54:31.499Z,62.10
2022-10-22T07:55:34.671Z,62.10
2022-10-22T07:56:37.109Z,62.10
2022-10-22T07:57:40.570Z,62.10
2022-10-22T07:58:43.019Z,62.10
2022-10-22T07:59:46.062Z,62.10
2022-10-22T08:00:49.545Z,62.10
2022-10-22T08:01:51.933Z,62.10
2022-10-22T08:02:54.331Z,62.10
2022-10-22T08:03:56.804Z,62.10
2022-10-22T08:04:59.495Z,62.10
2022-10-22T08:06:02.436Z,62.10
2022-10-22T08:07:05.329Z,62.10
2022-10-22T08:08:07.766Z,62.10
2022-10-22T08:09:10.285Z,62.10
2022-10-22T08:10:13.374Z,62.10
2022-10-22T08:11:15.844Z,62.10
2022-10-22T08:12:18.328Z,62.10
2022-10-22T08:13:21.316Z,62.10
2022-10-22T08:14:23.707Z,62.10
2022-10-22T08:15:27.208Z,62.10
2022-10-22T08:16:30.351Z,62.10
2022-10-22T08:17:32.875Z,62.10
2022-10-22T08:18:35.262Z,62.10
2022-10-22T08:19:37.705Z,62.10
2022-10-22T08:20:40.725Z,62.10
2022-10-22T08:21:43.162Z,62.10
2022-10-22T08:22:45.945Z,62.10
2022-10-22T08:23:48.390Z,62.10
2022-10-22T08:24:51.004Z,62.10
2022-10-22T08:25:53.757Z,62.10
2022-10-22T08:26:56.359Z,62.10
2022-10-22T08:27:58.813Z,62.10
2022-10-22T08:29:01.681Z,62.10
2022-10-22T08:30:07.790Z,62.10
2022-10-22T08:31:10.752Z,62.10
2022-10-22T08:32:13.361Z,62.10
2022-10-22T08:33:16.077Z,62.10
2022-10-22T08:34:19.088Z,62.10
2022-10-22T08:35:21.846Z,62.10
2022-10-22T08:36:24.312Z,62.10
2022-10-22T08:37:26.709Z,62.10
2022-10-22T08:38:31.327Z,62.10
2022-10-22T08:39:34.088Z,62.10
2022-10-22T08:40:40.178Z,62.10
2022-10-22T08:41:58.749Z,62.10
2022-10-22T08:43:17.943Z,62.10
2022-10-22T08:44:32.256Z,62.10
2022-10-22T08:46:00.077Z,62.10
2022-10-22T08:47:26.620Z,62.10
2022-10-22T08:48:45.750Z,62.10
2022-10-22T08:49:48.317Z,62.10
2022-10-22T08:50:54.724Z,62.10
2022-10-22T08:51:58.536Z,62.10
2022-10-22T08:53:04.658Z,62.10
2022-10-22T08:54:45.456Z,62.10
2022-10-22T08:55:52.031Z,62.10
2022-10-22T08:58:49.645Z,62.10
2022-10-22T09:00:03.717Z,62.10
2022-10-22T09:01:14.466Z,62.10
2022-10-22T09:02:42.093Z,62.10
2022-10-22T09:03:51.280Z,62.10
2022-10-22T09:05:15.298Z,62.10
2022-10-22T09:06:20.053Z,62.10
2022-10-22T09:07:22.530Z,62.10
2022-10-22T09:08:25.054Z,62.10
2022-10-22T09:09:35.089Z,62.10
2022-10-22T09:10:40.841Z,62.10
2022-10-22T09:11:51.626Z,62.10
2022-10-22T09:12:54.098Z,62.10
2022-10-22T09:13:57.530Z,62.10
2022-10-22T09:15:00.226Z,62.10
2022-10-22T09:16:18.531Z,62.10
2022-10-22T09:17:45.007Z,62.10
2022-10-22T09:19:20.014Z,62.10
2022-10-22T09:20:32.799Z,62.10
2022-10-22T09:22:19.659Z,62.10
2022-10-22T09:23:32.158Z,62.10
2022-10-22T09:24:48.694Z,62.20
2022-10-22T09:25:52.667Z,62.10
2022-10-22T09:26:56.973Z,62.10
2022-10-22T09:27:59.596Z,62.10
2022-10-22T09:29:02.184Z,62.10
2022-10-22T09:30:06.293Z,62.10
2022-10-22T09:31:13.887Z,62.10
2022-10-22T09:32:17.146Z,62.10
2022-10-22T09:33:27.445Z,62.20
2022-10-22T09:34:30.493Z,62.20
2022-10-22T09:35:54.770Z,62.10
2022-10-22T09:37:03.134Z,62.10
2022-10-22T09:38:08.986Z,62.20
2022-10-22T09:39:45.821Z,62.20
2022-10-22T09:40:50.819Z,62.10
2022-10-22T09:41:53.604Z,62.10
2022-10-22T09:42:56.169Z,62.10
2022-10-22T09:43:59.300Z,62.20
2022-10-22T09:45:01.828Z,62.20
2022-10-22T09:46:15.311Z,62.20
2022-10-22T09:48:01.612Z,62.10
2022-10-22T09:49:13.399Z,62.20
2022-10-22T09:50:42.567Z,62.20
2022-10-22T09:51:59.510Z,62.20
2022-10-22T09:53:23.319Z,62.20
2022-10-22T09:54:33.353Z,62.20
2022-10-22T09:55:39.757Z,62.20
2022-10-22T09:56:42.711Z,62.20
2022-10-22T09:57:53.795Z,62.20
2022-10-22T09:58:57.851Z,62.20
2022-10-22T10:00:00.444Z,62.20
2022-10-22T10:01:02.887Z,62.20
2022-10-22T10:02:37.099Z,62.20
2022-10-22T10:03:40.854Z,62.20
2022-10-22T10:04:57.031Z,62.20
2022-10-22T10:06:04.806Z,62.20
2022-10-22T10:07:20.453Z,62.20
2022-10-22T10:08:23.377Z,62.20
2022-10-22T10:09:27.130Z,62.20
2022-10-22T10:10:38.821Z,62.20
2022-10-22T10:11:46.210Z,62.30
2022-10-22T10:13:00.995Z,62.30
2022-10-22T10:14:22.083Z,62.20
2022-10-22T10:15:38.433Z,62.20
2022-10-22T10:16:52.156Z,62.30
2022-10-22T10:18:35.296Z,62.20
2022-10-22T10:19:56.296Z,62.20
2022-10-22T10:21:16.344Z,62.30
2022-10-22T10:22:33.540Z,62.30
2022-10-22T10:24:14.821Z,62.30
2022-10-22T10:25:26.307Z,62.30
2022-10-22T10:26:34.865Z,62.30
2022-10-22T10:28:17.748Z,62.30
2022-10-22T10:29:27.700Z,62.30
2022-10-22T10:30:32.829Z,62.30
2022-10-22T10:31:56.841Z,62.30
2022-10-22T10:33:16.338Z,62.30
2022-10-22T10:34:43.821Z,62.30
2022-10-22T10:35:58.637Z,62.30
2022-10-22T10:37:12.661Z,62.30
2022-10-22T10:38:48.425Z,62.30
2022-10-22T10:40:00.027Z,62.30
2022-10-22T10:41:29.128Z,62.40
2022-10-22T10:43:00.230Z,62.30
2022-10-22T10:44:22.848Z,62.30
2022-10-22T10:45:36.916Z,62.30
2022-10-22T10:47:10.905Z,62.40
2022-10-22T10:48:19.465Z,62.30
2022-10-22T10:49:27.070Z,62.40
2022-10-22T10:50:40.053Z,63.00
2022-10-22T10:52:24.831Z,62.90
2022-10-22T10:53:55.337Z,62.40
2022-10-22T10:55:22.430Z,62.40
2022-10-22T10:56:41.826Z,62.40
2022-10-22T10:58:02.738Z,62.40
2022-10-22T10:59:14.700Z,62.40
2022-10-22T11:00:20.054Z,62.40
2022-10-22T11:01:33.299Z,62.40
2022-10-22T11:02:47.549Z,62.40
2022-10-22T11:04:21.084Z,62.40
2022-10-22T11:05:26.575Z,62.40
2022-10-22T11:06:32.874Z,62.40
2022-10-22T11:07:41.634Z,62.40
2022-10-22T11:09:10.923Z,62.40
2022-10-22T11:10:27.676Z,62.40
2022-10-22T11:12:04.130Z,62.40
2022-10-22T11:13:24.926Z,62.40
2022-10-22T11:15:06.742Z,62.40
2022-10-22T11:16:20.850Z,62.40
2022-10-22T11:17:26.869Z,62.40
2022-10-22T11:18:32.670Z,62.40
2022-10-22T11:19:59.813Z,62.40
2022-10-22T11:21:21.299Z,62.40
2022-10-22T11:22:34.132Z,62.40
2022-10-22T11:23:48.406Z,62.40
2022-10-22T11:24:58.082Z,62.30
2022-10-22T11:26:01.693Z,62.40
2022-10-22T11:27:11.898Z,62.40
2022-10-22T11:29:28.235Z,62.40
2022-10-22T11:30:36.217Z,62.40
2022-10-22T11:31:39.931Z,62.40
2022-10-22T11:32:48.394Z,62.40
2022-10-22T11:34:28.573Z,62.40
2022-10-22T11:35:31.332Z,62.60
2022-10-22T11:36:34.724Z,62.40
2022-10-22T11:37:39.151Z,62.40
2022-10-22T11:38:42.215Z,62.40
2022-10-22T11:39:47.727Z,62.40
2022-10-22T11:41:03.554Z,62.40
2022-10-22T11:42:10.444Z,62.40
2022-10-22T11:43:46.868Z,62.40
2022-10-22T11:45:04.829Z,62.40
2022-10-22T11:46:16.081Z,62.40
2022-10-22T11:47:24.802Z,62.40
2022-10-22T11:48:28.566Z,62.40
2022-10-22T11:50:14.209Z,62.40
2022-10-22T11:51:33.308Z,62.40
2022-10-22T11:52:35.654Z,62.40
2022-10-22T11:53:39.280Z,62.40
2022-10-22T11:54:45.042Z,62.40
2022-10-22T11:55:51.810Z,62.40
2022-10-22T11:57:17.246Z,62.40
2022-10-22T11:58:33.596Z,62.40
2022-10-22T11:59:47.349Z,62.40
2022-10-22T12:00:49.668Z,62.40
2022-10-22T12:01:55.819Z,62.40
2022-10-22T12:03:21.151Z,62.40
2022-10-22T12:04:41.035Z,62.40
2022-10-22T12:05:45.225Z,62.30
2022-10-22T12:07:03.072Z,62.40
2022-10-22T12:08:20.164Z,62.40
2022-10-22T12:09:26.618Z,62.30
2022-10-22T12:10:56.804Z,62.40
2022-10-22T12:12:09.402Z,62.30
2022-10-22T12:13:13.444Z,62.30
2022-10-22T12:14:26.582Z,62.30
2022-10-22T12:15:29.563Z,62.30
2022-10-22T12:16:58.184Z,62.30
2022-10-22T12:18:02.611Z,62.80
2022-10-22T12:19:14.033Z,62.30
2022-10-22T12:20:17.662Z,62.30
2022-10-22T12:21:20.129Z,62.30
2022-10-22T12:22:28.189Z,62.30
2022-10-22T12:23:34.224Z,62.30
2022-10-22T12:24:44.620Z,62.30
2022-10-22T12:25:48.569Z,62.30
2022-10-22T12:26:52.736Z,62.30
2022-10-22T12:27:58.244Z,62.30
2022-10-22T12:29:06.424Z,62.30
2022-10-22T12:30:30.439Z,62.30
2022-10-22T12:31:37.968Z,62.20
2022-10-22T12:32:41.411Z,62.30
2022-10-22T12:33:43.881Z,62.20
2022-10-22T12:34:52.204Z,62.20
2022-10-22T12:35:57.550Z,62.30
2022-10-22T12:36:59.950Z,62.20
2022-10-22T12:38:08.242Z,62.20
2022-10-22T12:39:16.847Z,62.30
2022-10-22T12:40:21.894Z,62.20
2022-10-22T12:41:34.393Z,62.20
2022-10-22T12:42:38.120Z,62.20
2022-10-22T12:43:40.608Z,62.20
2022-10-22T12:44:46.357Z,62.20
2022-10-22T12:45:50.557Z,62.20
2022-10-22T12:46:56.885Z,62.20
2022-10-22T12:48:03.245Z,62.20
2022-10-22T12:49:22.303Z,62.20
2022-10-22T12:50:42.036Z,62.20
2022-10-22T12:51:45.810Z,62.20
2022-10-22T12:52:49.074Z,62.20
2022-10-22T12:53:54.772Z,62.20
2022-10-22T12:54:57.279Z,62.20
2022-10-22T12:56:03.863Z,62.20
2022-10-22T12:57:13.530Z,62.20
2022-10-22T12:58:22.264Z,62.20
2022-10-22T12:59:35.996Z,62.20
2022-10-22T13:00:39.390Z,62.20
2022-10-22T13:01:43.575Z,62.10
2022-10-22T13:02:46.170Z,62.10
2022-10-22T13:04:03.985Z,62.20
2022-10-22T13:05:27.266Z,62.10
2022-10-22T13:06:29.832Z,62.10
2022-10-22T13:07:41.307Z,62.10
2022-10-22T13:08:43.823Z,62.10
2022-10-22T13:09:59.463Z,62.10
2022-10-22T13:11:09.270Z,62.10
2022-10-22T13:12:16.567Z,62.10
2022-10-22T13:13:32.435Z,62.10
2022-10-22T13:14:38.142Z,62.10
2022-10-22T13:15:40.859Z,62.10
2022-10-22T13:16:43.638Z,62.10
2022-10-22T13:17:48.335Z,62.10
2022-10-22T13:18:52.258Z,62.10
2022-10-22T13:19:54.806Z,62.00
2022-10-22T13:21:03.152Z,62.00
2022-10-22T13:22:22.467Z,62.00
2022-10-22T13:23:28.175Z,62.00
2022-10-22T13:24:31.111Z,62.00
2022-10-22T13:25:39.552Z,62.00
2022-10-22T13:26:41.959Z,62.00
2022-10-22T13:28:05.453Z,62.00
2022-10-22T13:29:12.460Z,62.00
2022-10-22T13:30:19.753Z,62.00
2022-10-22T13:31:24.366Z,62.00
2022-10-22T13:32:33.428Z,62.00
2022-10-22T13:33:43.499Z,62.00
2022-10-22T13:34:45.940Z,62.00
2022-10-22T13:35:49.469Z,61.90
2022-10-22T13:36:52.963Z,61.90
2022-10-22T13:37:55.396Z,62.00
2022-10-22T13:38:58.005Z,62.00
2022-10-22T13:40:00.469Z,61.90
2022-10-22T13:41:04.773Z,61.90
2022-10-22T13:42:12.525Z,61.90
2022-10-22T13:43:15.664Z,61.90
2022-10-22T13:44:19.658Z,61.90
2022-10-22T13:45:22.305Z,61.90
2022-10-22T13:46:26.520Z,61.90
2022-10-22T13:47:29.751Z,61.90
2022-10-22T13:48:32.241Z,61.90
2022-10-22T13:49:35.125Z,61.90
2022-10-22T13:50:38.498Z,61.80
2022-10-22T13:51:41.008Z,61.80
2022-10-22T13:52:50.867Z,61.80
2022-10-22T13:53:54.221Z,61.80
2022-10-22T13:54:56.730Z,61.80
2022-10-22T13:55:59.225Z,61.80
2022-10-22T13:57:01.966Z,61.80
2022-10-22T13:58:14.689Z,61.80
2022-10-22T13:59:19.766Z,61.80
2022-10-22T14:00:26.699Z,61.80
2022-10-22T14:01:29.209Z,61.80
2022-10-22T14:02:31.934Z,61.80
2022-10-22T14:03:37.736Z,61.80
2022-10-22T14:04:41.619Z,61.80
2022-10-22T14:05:46.574Z,61.80
2022-10-22T14:06:49.010Z,61.80
2022-10-22T14:07:52.551Z,61.90
2022-10-22T14:08:58.553Z,61.70
2022-10-22T14:10:01.054Z,61.70
2022-10-22T14:11:03.461Z,61.70
2022-10-22T14:12:16.934Z,61.70
2022-10-22T14:13:20.932Z,61.70
2022-10-22T14:14:23.392Z,61.70
2022-10-22T14:15:29.093Z,61.70
2022-10-22T14:16:33.200Z,61.70
2022-10-22T14:17:35.641Z,61.70
2022-10-22T14:18:38.066Z,61.70
2022-10-22T14:19:40.481Z,61.70
2022-10-22T14:20:43.402Z,61.70
2022-10-22T14:21:45.981Z,61.60
2022-10-22T14:22:49.974Z,61.60
2022-10-22T14:23:54.121Z,61.60
2022-10-22T14:24:57.283Z,61.60
2022-10-22T14:26:00.510Z,61.60
2022-10-22T14:27:02.986Z,61.60
2022-10-22T14:28:05.427Z,61.60
2022-10-22T14:29:10.603Z,61.60
2022-10-22T14:30:21.613Z,61.60
2022-10-22T14:31:24.113Z,61.60
2022-10-22T14:32:28.511Z,61.60
2022-10-22T14:33:32.855Z,61.60
2022-10-22T14:34:35.409Z,61.50
2022-10-22T14:35:37.936Z,61.50